createdAt,value
2018-01-22T11:17:13.804Z,1056.00
2018-01-22T11:18:13.744Z,1004.00
2018-01-22T11:20:08.192Z,1012.00
2018-01-22T11:21:08.175Z,992.00
2018-01-22T11:23:02.562Z,924.00
2018-01-22T11:24:02.504Z,836.00
2018-01-22T11:25:56.870Z,884.00
2018-01-22T11:26:56.876Z,884.00
2018-01-22T11:28:51.254Z,776.00
2018-01-22T11:29:51.206Z,760.00
2018-01-22T11:31:45.574Z,760.00
2018-01-22T11:32:45.583Z,704.00
2018-01-22T11:34:44.486Z,696.00
2018-01-22T11:35:44.367Z,704.00
2018-01-22T11:37:38.881Z,788.00
2018-01-22T11:38:38.715Z,824.00
2018-01-22T11:40:33.111Z,888.00
2018-01-22T11:41:33.081Z,892.00
2018-01-22T11:43:27.505Z,736.00
2018-01-22T11:44:27.437Z,696.00
2018-01-22T11:46:21.807Z,612.00
2018-01-22T11:47:21.789Z,572.00
2018-01-22T11:49:16.192Z,584.00
2018-01-22T11:50:16.140Z,652.00
2018-01-22T11:52:10.498Z,632.00
2018-01-22T11:53:10.485Z,608.00
2018-01-22T11:55:04.931Z,624.00
2018-01-22T11:56:04.840Z,704.00
2018-01-22T11:57:59.713Z,652.00
2018-01-22T11:58:59.809Z,668.00
2018-01-22T12:00:54.122Z,736.00
2018-01-22T12:01:54.062Z,852.00
2018-01-22T12:03:48.427Z,860.00
2018-01-22T12:04:48.409Z,844.00
2018-01-22T12:06:42.872Z,916.00
2018-01-22T12:07:42.738Z,1016.00
2018-01-22T12:09:37.108Z,916.00
2018-01-22T12:10:37.092Z,844.00
2018-01-22T12:12:31.552Z,760.00
2018-01-22T12:13:31.450Z,708.00
2018-01-22T12:15:25.805Z,672.00
2018-01-22T12:16:25.797Z,668.00
2018-01-22T12:18:20.251Z,636.00
2018-01-22T12:19:20.162Z,628.00
2018-01-22T12:21:14.609Z,744.00
2018-01-22T12:22:14.518Z,672.00
2018-01-22T12:24:08.886Z,792.00
2018-01-22T12:25:08.875Z,832.00
2018-01-22T12:27:03.273Z,692.00
2018-01-22T12:28:03.221Z,656.00
2018-01-22T12:29:57.584Z,612.00
2018-01-22T12:30:57.577Z,688.00
2018-01-22T12:32:51.034Z,780.00
2018-01-22T12:33:50.932Z,832.00
2018-01-22T12:35:45.343Z,884.00
2018-01-22T12:36:45.356Z,828.00
2018-01-22T12:38:39.711Z,708.00
2018-01-22T12:39:39.645Z,708.00
2018-01-22T12:41:34.004Z,648.00
2018-01-22T12:42:33.999Z,668.00
2018-01-22T12:44:29.389Z,684.00
2018-01-22T12:45:29.347Z,708.00
2018-01-22T12:47:23.718Z,728.00
2018-01-22T12:48:23.736Z,672.00
2018-01-22T12:50:18.168Z,856.00
2018-01-22T12:51:18.068Z,856.00
2018-01-22T12:53:12.451Z,772.00
2018-01-22T12:54:12.421Z,712.00
2018-01-22T12:56:06.898Z,640.00
2018-01-22T12:57:06.954Z,696.00
2018-01-22T12:59:00.217Z,580.00
2018-01-22T13:00:00.137Z,504.00
2018-01-22T13:01:54.564Z,612.00
2018-01-22T13:02:54.508Z,620.00
2018-01-22T13:04:48.871Z,604.00
2018-01-22T13:05:48.860Z,664.00
2018-01-22T13:07:43.290Z,692.00
2018-01-22T13:08:43.243Z,680.00
2018-01-22T13:10:37.607Z,716.00
2018-01-22T13:11:37.599Z,668.00
2018-01-22T13:13:32.060Z,668.00
2018-01-22T13:14:32.002Z,684.00
2018-01-22T13:16:26.365Z,644.00
2018-01-22T13:17:26.311Z,624.00
2018-01-22T13:19:20.836Z,580.00
2018-01-22T13:20:20.668Z,552.00
2018-01-22T13:22:15.033Z,648.00
2018-01-22T13:23:15.049Z,672.00
2018-01-22T13:25:09.431Z,628.00
2018-01-22T13:26:09.636Z,616.00
2018-01-22T13:28:03.773Z,624.00
2018-01-22T13:29:03.760Z,604.00
2018-01-22T13:30:58.325Z,668.00
2018-01-22T13:31:58.145Z,688.00
2018-01-22T13:33:52.560Z,636.00
2018-01-22T13:34:52.474Z,632.00
2018-01-22T13:36:46.827Z,612.00
2018-01-22T13:37:46.817Z,628.00
2018-01-22T13:39:41.232Z,740.00
2018-01-22T13:40:41.178Z,748.00
2018-01-22T13:42:35.590Z,688.00
2018-01-22T13:43:35.653Z,668.00
2018-01-22T13:45:29.947Z,620.00
2018-01-22T13:46:29.893Z,576.00
2018-01-22T13:48:24.261Z,532.00
2018-01-22T13:49:24.251Z,504.00
2018-01-22T13:51:18.904Z,424.00
2018-01-22T13:52:18.616Z,412.00
2018-01-22T13:54:12.984Z,412.00
2018-01-22T13:55:13.029Z,436.00
2018-01-22T13:57:07.387Z,500.00
2018-01-22T13:58:07.330Z,524.00
2018-01-22T14:00:01.747Z,508.00
2018-01-22T14:01:01.692Z,484.00
2018-01-22T14:02:56.049Z,448.00
2018-01-22T14:03:56.047Z,444.00
2018-01-22T14:05:50.437Z,396.00
2018-01-22T14:06:50.378Z,364.00
2018-01-22T14:08:49.591Z,376.00
2018-01-22T14:09:49.585Z,392.00
2018-01-22T14:11:44.037Z,380.00
2018-01-22T14:12:43.941Z,376.00
2018-01-22T14:14:38.317Z,364.00
2018-01-22T14:15:38.302Z,340.00
2018-01-22T14:17:32.712Z,324.00
2018-01-22T14:18:32.662Z,356.00
2018-01-22T14:20:27.037Z,384.00
2018-01-22T14:21:27.033Z,388.00
2018-01-22T14:23:21.582Z,380.00
2018-01-22T14:24:21.420Z,364.00
2018-01-22T14:26:15.776Z,392.00
2018-01-22T14:27:15.772Z,416.00
2018-01-22T14:29:10.222Z,408.00
2018-01-22T14:30:10.124Z,456.00
2018-01-22T14:32:04.540Z,452.00
2018-01-22T14:33:04.486Z,440.00
2018-01-22T14:34:58.849Z,396.00
2018-01-22T14:35:58.852Z,380.00
2018-01-22T14:37:53.305Z,316.00
2018-01-22T14:38:53.241Z,300.00
2018-01-22T14:40:47.601Z,284.00
2018-01-22T14:41:47.563Z,264.00
2018-01-22T14:43:41.989Z,228.00
2018-01-22T14:44:41.923Z,220.00
2018-01-22T14:46:36.287Z,208.00
2018-01-22T14:47:36.277Z,200.00
2018-01-22T14:49:30.725Z,176.00
2018-01-22T14:50:30.623Z,164.00
2018-01-22T14:52:24.998Z,152.00
2018-01-22T14:53:24.984Z,148.00
2018-01-22T14:55:19.645Z,136.00
2018-01-22T14:56:19.369Z,136.00
2018-01-22T14:58:13.725Z,136.00
2018-01-22T14:59:13.703Z,132.00
2018-01-22T15:01:08.161Z,120.00
2018-01-22T15:02:08.056Z,116.00
2018-01-22T15:04:02.432Z,112.00
2018-01-22T15:05:02.447Z,108.00
2018-01-22T15:06:56.923Z,108.00
2018-01-22T15:07:56.804Z,104.00
2018-01-22T15:09:51.136Z,96.00
2018-01-22T15:10:51.129Z,96.00
2018-01-22T15:12:50.584Z,88.00
2018-01-22T15:13:50.475Z,88.00
2018-01-22T15:15:44.878Z,84.00
2018-01-22T15:16:44.824Z,84.00
2018-01-22T15:18:39.227Z,80.00
2018-01-22T15:19:39.174Z,76.00
2018-01-22T15:21:33.549Z,76.00
2018-01-22T15:22:33.822Z,68.00
2018-01-22T15:24:28.489Z,68.00
2018-01-22T15:25:27.901Z,64.00
2018-01-22T15:27:22.266Z,60.00
2018-01-22T15:28:22.265Z,56.00
2018-01-22T15:30:16.674Z,56.00
2018-01-22T15:31:16.612Z,60.00
2018-01-22T15:33:10.980Z,56.00
2018-01-22T15:34:10.976Z,52.00
2018-01-22T15:36:05.394Z,48.00
2018-01-22T15:37:05.348Z,44.00
2018-01-22T15:38:59.753Z,40.00
2018-01-22T15:39:59.703Z,36.00
2018-01-22T15:41:54.092Z,32.00
2018-01-22T15:42:54.118Z,28.00
2018-01-22T15:44:48.536Z,28.00
2018-01-22T15:45:48.435Z,32.00
2018-01-22T15:47:42.892Z,28.00
2018-01-22T15:48:42.819Z,28.00
2018-01-22T15:50:37.155Z,24.00
2018-01-22T15:51:37.146Z,24.00
2018-01-22T15:53:31.556Z,24.00
2018-01-22T15:54:31.505Z,20.00
2018-01-22T15:56:25.879Z,20.00
2018-01-22T15:57:25.863Z,20.00
2018-01-22T15:59:20.274Z,24.00
2018-01-22T16:00:20.246Z,20.00
2018-01-22T16:02:14.600Z,16.00
2018-01-22T16:03:14.570Z,16.00
2018-01-22T16:05:08.445Z,16.00
2018-01-22T16:06:09.717Z,24.00
2018-01-22T16:08:02.747Z,24.00
2018-01-22T16:09:02.386Z,24.00
2018-01-22T16:10:56.781Z,20.00
2018-01-22T16:11:56.753Z,20.00
2018-01-22T16:13:51.079Z,20.00
2018-01-22T16:14:51.129Z,20.00
2018-01-22T16:16:45.485Z,20.00
2018-01-22T16:17:45.432Z,20.00
2018-01-22T16:19:39.885Z,20.00
2018-01-22T16:20:39.779Z,20.00
2018-01-22T16:22:34.160Z,20.00
2018-01-22T16:23:34.149Z,20.00
2018-01-22T16:25:28.638Z,20.00
2018-01-22T16:26:28.527Z,20.00
2018-01-22T16:28:22.990Z,20.00
2018-01-22T16:29:22.891Z,20.00
2018-01-22T16:31:17.258Z,20.00
2018-01-22T16:32:17.251Z,20.00
2018-01-22T16:34:11.809Z,20.00
2018-01-22T16:35:11.611Z,20.00
2018-01-22T16:37:05.976Z,20.00
2018-01-22T16:38:05.989Z,20.00
2018-01-22T16:40:00.433Z,20.00
2018-01-22T16:41:00.348Z,16.00
2018-01-22T16:42:54.745Z,16.00
2018-01-22T16:43:54.705Z,20.00
2018-01-22T16:45:49.557Z,16.00
2018-01-22T16:46:49.056Z,16.00
2018-01-22T16:48:43.422Z,16.00
2018-01-22T16:49:43.412Z,20.00
2018-01-22T16:51:41.945Z,16.00
2018-01-22T16:52:41.893Z,16.00
2018-01-22T16:54:41.041Z,16.00
2018-01-22T16:55:40.946Z,16.00
2018-01-22T16:56:40.938Z,16.00
2018-01-22T16:57:40.948Z,16.00
2018-01-22T16:58:40.979Z,20.00
2018-01-22T16:59:40.921Z,20.00
2018-01-22T17:00:40.923Z,16.00
2018-01-22T17:01:40.908Z,20.00
2018-01-22T17:02:40.907Z,16.00
2018-01-22T17:03:40.900Z,16.00
2018-01-22T17:04:40.896Z,16.00
2018-01-22T17:05:40.913Z,16.00
2018-01-22T17:06:40.881Z,16.00
2018-01-22T17:07:40.877Z,16.00
2018-01-22T17:08:40.871Z,16.00
2018-01-22T17:09:40.865Z,16.00
2018-01-22T17:10:40.863Z,16.00
2018-01-22T17:11:40.872Z,20.00
2018-01-22T17:12:40.850Z,20.00
2018-01-22T17:13:40.849Z,20.00
2018-01-22T17:14:40.857Z,20.00
2018-01-22T17:15:40.840Z,20.00
2018-01-22T17:16:40.837Z,20.00
2018-01-22T17:17:40.834Z,20.00
2018-01-22T17:18:40.861Z,16.00
2018-01-22T17:19:40.825Z,16.00
2018-01-22T17:20:40.864Z,16.00
2018-01-22T17:21:40.818Z,16.00
2018-01-22T17:22:40.801Z,20.00
2018-01-22T17:23:40.810Z,16.00
2018-01-22T17:24:40.793Z,16.00
2018-01-22T17:25:40.777Z,16.00
2018-01-22T17:26:40.772Z,16.00
2018-01-22T17:27:40.770Z,16.00
2018-01-22T17:28:40.758Z,16.00
2018-01-22T17:29:40.774Z,16.00
2018-01-22T17:30:40.747Z,16.00
2018-01-22T17:31:40.773Z,16.00
2018-01-22T17:32:40.741Z,16.00
2018-01-22T17:33:40.729Z,16.00
2018-01-22T17:34:40.728Z,16.00
2018-01-22T17:35:40.718Z,16.00
2018-01-22T17:36:40.740Z,20.00
2018-01-22T17:37:40.706Z,16.00
2018-01-22T17:38:40.702Z,16.00
2018-01-22T17:39:40.698Z,20.00
2018-01-22T17:40:40.686Z,16.00
2018-01-22T17:41:40.676Z,16.00
2018-01-22T17:42:40.683Z,16.00
2018-01-22T17:43:40.675Z,16.00
2018-01-22T17:44:40.715Z,16.00
2018-01-22T17:45:40.665Z,16.00
2018-01-22T17:46:41.303Z,16.00
2018-01-22T17:47:40.663Z,16.00
2018-01-22T17:48:40.667Z,16.00
2018-01-22T17:49:40.649Z,16.00
2018-01-22T17:50:42.317Z,16.00
2018-01-22T17:51:40.655Z,16.00
2018-01-22T17:52:40.650Z,16.00
2018-01-22T17:53:40.659Z,16.00
2018-01-22T17:54:40.632Z,16.00
2018-01-22T17:55:40.678Z,16.00
2018-01-22T17:56:40.628Z,16.00
2018-01-22T17:57:40.632Z,16.00
2018-01-22T17:58:40.645Z,16.00
2018-01-22T17:59:40.605Z,16.00
2018-01-22T18:00:40.651Z,16.00
2018-01-22T18:01:40.604Z,16.00
2018-01-22T18:02:40.610Z,16.00
2018-01-22T18:03:40.602Z,16.00
2018-01-22T18:04:40.604Z,20.00
2018-01-22T18:05:40.588Z,16.00
2018-01-22T18:06:40.652Z,16.00
2018-01-22T18:07:40.540Z,16.00
2018-01-22T18:08:40.583Z,20.00
2018-01-22T18:09:40.550Z,16.00
2018-01-22T18:10:40.591Z,16.00
2018-01-22T18:11:40.780Z,16.00
2018-01-22T18:12:40.529Z,16.00
2018-01-22T18:13:40.530Z,16.00
2018-01-22T18:14:40.548Z,16.00
2018-01-22T18:15:40.512Z,16.00
2018-01-22T18:16:40.511Z,16.00
2018-01-22T18:17:40.522Z,16.00
2018-01-22T18:18:40.498Z,20.00
2018-01-22T18:19:40.942Z,16.00
2018-01-22T18:20:40.489Z,16.00
2018-01-22T18:21:40.473Z,16.00
2018-01-22T18:22:40.485Z,16.00
2018-01-22T18:23:43.325Z,16.00
2018-01-22T18:24:40.475Z,16.00
2018-01-22T18:25:40.470Z,20.00
2018-01-22T18:26:40.443Z,20.00
2018-01-22T18:27:40.437Z,20.00
2018-01-22T18:28:40.489Z,16.00
2018-01-22T18:29:40.437Z,16.00
2018-01-22T18:30:40.433Z,20.00
2018-01-22T18:31:40.428Z,20.00
2018-01-22T18:32:40.429Z,16.00
2018-01-22T18:33:40.518Z,20.00
2018-01-22T18:34:40.413Z,16.00
2018-01-22T18:35:40.408Z,20.00
2018-01-22T18:36:40.402Z,20.00
2018-01-22T18:37:40.406Z,20.00
2018-01-22T18:38:40.406Z,20.00
2018-01-22T18:39:40.394Z,20.00
2018-01-22T18:40:40.386Z,16.00
2018-01-22T18:41:40.381Z,20.00
2018-01-22T18:42:40.372Z,20.00
2018-01-22T18:43:40.389Z,16.00
2018-01-22T18:44:40.364Z,20.00
2018-01-22T18:45:40.364Z,20.00
2018-01-22T18:46:40.354Z,20.00
2018-01-22T18:47:40.373Z,20.00
2018-01-22T18:48:40.355Z,20.00
2018-01-22T18:49:40.339Z,8.00
2018-01-22T18:50:40.350Z,12.00
2018-01-22T18:51:40.329Z,12.00
2018-01-22T18:52:40.367Z,12.00
2018-01-22T18:53:40.319Z,8.00
2018-01-22T18:54:40.315Z,8.00
2018-01-22T18:55:40.315Z,8.00
2018-01-22T18:56:40.303Z,8.00
2018-01-22T18:57:40.301Z,8.00
2018-01-22T18:58:40.298Z,8.00
2018-01-22T18:59:40.297Z,8.00
2018-01-22T19:00:40.274Z,8.00
2018-01-22T19:01:40.270Z,8.00
2018-01-22T19:02:40.281Z,8.00
2018-01-22T19:03:40.269Z,8.00
2018-01-22T19:04:40.270Z,8.00
2018-01-22T19:05:40.259Z,8.00
2018-01-22T19:06:40.253Z,8.00
2018-01-22T19:07:43.850Z,8.00
2018-01-22T19:08:40.588Z,8.00
2018-01-22T19:09:40.242Z,8.00
2018-01-22T19:10:40.241Z,8.00
2018-01-22T19:11:40.231Z,8.00
2018-01-22T19:12:40.231Z,8.00
2018-01-22T19:13:40.210Z,8.00
2018-01-22T19:14:40.203Z,8.00
2018-01-22T19:15:40.231Z,8.00
2018-01-22T19:16:40.205Z,8.00
2018-01-22T19:17:40.212Z,8.00
2018-01-22T19:18:40.682Z,8.00
2018-01-22T19:19:40.178Z,8.00
2018-01-22T19:20:40.174Z,8.00
2018-01-22T19:21:40.313Z,8.00
2018-01-22T19:22:40.181Z,8.00
2018-01-22T19:23:40.178Z,8.00
2018-01-22T19:24:40.174Z,8.00
2018-01-22T19:25:40.160Z,8.00
2018-01-22T19:26:40.154Z,8.00
2018-01-22T19:27:40.155Z,8.00
2018-01-22T19:28:40.145Z,8.00
2018-01-22T19:29:40.141Z,8.00
2018-01-22T19:30:40.136Z,8.00
2018-01-22T19:31:40.141Z,8.00
2018-01-22T19:32:40.131Z,8.00
2018-01-22T19:33:40.120Z,8.00
2018-01-22T19:34:40.117Z,8.00
2018-01-22T19:35:40.113Z,8.00
2018-01-22T19:36:40.880Z,8.00
2018-01-22T19:37:41.142Z,8.00
2018-01-22T19:38:41.756Z,8.00
2018-01-22T19:39:40.600Z,8.00
2018-01-22T19:40:40.077Z,8.00
2018-01-22T19:41:40.072Z,8.00
2018-01-22T19:42:40.078Z,8.00
2018-01-22T19:43:40.079Z,8.00
2018-01-22T19:44:40.105Z,8.00
2018-01-22T19:45:40.101Z,8.00
2018-01-22T19:46:40.073Z,8.00
2018-01-22T19:47:40.077Z,8.00
2018-01-22T19:48:40.763Z,8.00
2018-01-22T19:49:40.039Z,8.00
2018-01-22T19:50:40.301Z,8.00
2018-01-22T19:51:40.038Z,8.00
2018-01-22T19:52:40.088Z,8.00
2018-01-22T19:53:40.044Z,8.00
2018-01-22T19:54:40.032Z,8.00
2018-01-22T19:55:40.028Z,8.00
2018-01-22T19:56:40.022Z,8.00
2018-01-22T19:57:40.010Z,8.00
2018-01-22T19:58:40.000Z,8.00
2018-01-22T19:59:39.995Z,8.00
2018-01-22T20:00:39.996Z,8.00
2018-01-22T20:01:40.017Z,8.00
2018-01-22T20:02:40.190Z,8.00
2018-01-22T20:03:39.998Z,8.00
2018-01-22T20:04:40.018Z,8.00
2018-01-22T20:05:39.983Z,8.00
2018-01-22T20:06:39.994Z,8.00
2018-01-22T20:07:39.984Z,8.00
2018-01-22T20:08:39.986Z,8.00
2018-01-22T20:09:40.049Z,8.00
2018-01-22T20:10:39.981Z,8.00
2018-01-22T20:11:40.010Z,8.00
2018-01-22T20:12:39.963Z,8.00
2018-01-22T20:13:39.946Z,8.00
2018-01-22T20:14:39.940Z,8.00
2018-01-22T20:15:39.948Z,8.00
2018-01-22T20:16:39.939Z,8.00
2018-01-22T20:17:39.917Z,8.00
2018-01-22T20:18:39.928Z,8.00
2018-01-22T20:19:39.924Z,8.00
2018-01-22T20:20:39.938Z,8.00
2018-01-22T20:21:39.909Z,8.00
2018-01-22T20:22:39.898Z,8.00
2018-01-22T20:23:39.896Z,8.00
2018-01-22T20:24:39.885Z,8.00
2018-01-22T20:25:39.883Z,8.00
2018-01-22T20:26:40.323Z,8.00
2018-01-22T20:27:39.900Z,8.00
2018-01-22T20:28:39.917Z,8.00
2018-01-22T20:29:39.996Z,8.00
2018-01-22T20:30:39.931Z,8.00
2018-01-22T20:31:39.863Z,8.00
2018-01-22T20:32:39.871Z,8.00
2018-01-22T20:33:39.860Z,8.00
2018-01-22T20:34:39.838Z,8.00
2018-01-22T20:35:39.828Z,8.00
2018-01-22T20:36:40.090Z,8.00
2018-01-22T20:37:39.817Z,8.00
2018-01-22T20:38:39.802Z,8.00
2018-01-22T20:39:40.035Z,8.00
2018-01-22T20:40:39.794Z,8.00
2018-01-22T20:41:39.980Z,8.00
2018-01-22T20:42:39.853Z,8.00
2018-01-22T20:43:39.825Z,8.00
2018-01-22T20:44:39.801Z,8.00
2018-01-22T20:45:39.804Z,8.00
2018-01-22T20:46:40.390Z,8.00
2018-01-22T20:47:40.779Z,8.00
2018-01-22T20:48:39.778Z,8.00
2018-01-22T20:49:39.813Z,8.00
2018-01-22T20:50:39.853Z,8.00
2018-01-22T20:51:39.776Z,8.00
2018-01-22T20:52:39.766Z,8.00
2018-01-22T20:53:39.768Z,8.00
2018-01-22T20:54:39.783Z,8.00
2018-01-22T20:55:39.772Z,8.00
2018-01-22T20:56:39.956Z,8.00
2018-01-22T20:57:39.781Z,8.00
2018-01-22T20:58:39.753Z,8.00
2018-01-22T20:59:39.736Z,8.00
2018-01-22T21:00:39.727Z,8.00
2018-01-22T21:01:39.749Z,8.00
2018-01-22T21:02:39.729Z,8.00
2018-01-22T21:03:39.717Z,4.00
2018-01-22T21:04:39.698Z,8.00
2018-01-22T21:05:39.696Z,8.00
2018-01-22T21:06:39.696Z,12.00
2018-01-22T21:07:39.688Z,8.00
2018-01-22T21:08:39.753Z,4.00
2018-01-22T21:09:39.692Z,8.00
2018-01-22T21:10:39.659Z,8.00
2018-01-22T21:11:39.658Z,4.00
2018-01-22T21:12:39.669Z,4.00
2018-01-22T21:13:39.659Z,8.00
2018-01-22T21:14:40.758Z,8.00
2018-01-22T21:15:39.636Z,8.00
2018-01-22T21:16:40.431Z,4.00
2018-01-22T21:17:39.636Z,8.00
2018-01-22T21:18:39.625Z,4.00
2018-01-22T21:19:39.642Z,8.00
2018-01-22T21:20:39.668Z,8.00
2018-01-22T21:21:40.288Z,8.00
2018-01-22T21:22:39.612Z,4.00
2018-01-22T21:23:39.603Z,4.00
2018-01-22T21:24:39.596Z,8.00
2018-01-22T21:25:39.586Z,4.00
2018-01-22T21:26:39.581Z,8.00
2018-01-22T21:27:39.577Z,8.00
2018-01-22T21:28:39.574Z,4.00
2018-01-22T21:29:39.575Z,4.00
2018-01-22T21:30:39.564Z,8.00
2018-01-22T21:31:39.558Z,8.00
2018-01-22T21:32:39.568Z,4.00
2018-01-22T21:33:39.550Z,8.00
2018-01-22T21:34:39.548Z,8.00
2018-01-22T21:35:39.540Z,4.00
2018-01-22T21:36:39.536Z,4.00
2018-01-22T21:37:39.539Z,8.00
2018-01-22T21:38:40.024Z,8.00
2018-01-22T21:39:39.519Z,8.00
2018-01-22T21:40:39.509Z,4.00
2018-01-22T21:41:39.512Z,8.00
2018-01-22T21:42:39.508Z,8.00
2018-01-22T21:43:39.506Z,4.00
2018-01-22T21:44:39.505Z,4.00
2018-01-22T21:45:39.494Z,4.00
2018-01-22T21:46:39.505Z,8.00
2018-01-22T21:47:39.545Z,4.00
2018-01-22T21:48:39.481Z,8.00
2018-01-22T21:49:39.476Z,4.00
2018-01-22T21:50:39.472Z,8.00
2018-01-22T21:51:39.467Z,4.00
2018-01-22T21:52:39.500Z,8.00
2018-01-22T21:53:39.459Z,8.00
2018-01-22T21:54:39.457Z,8.00
2018-01-22T21:55:39.452Z,8.00
2018-01-22T21:56:39.452Z,8.00
2018-01-22T21:57:39.443Z,8.00
2018-01-22T21:58:39.481Z,4.00
2018-01-22T21:59:39.433Z,4.00
2018-01-22T22:00:39.425Z,4.00
2018-01-22T22:01:39.420Z,4.00
2018-01-22T22:02:39.417Z,4.00
2018-01-22T22:03:39.414Z,8.00
2018-01-22T22:04:39.409Z,4.00
2018-01-22T22:05:39.401Z,4.00
2018-01-22T22:06:39.401Z,4.00
2018-01-22T22:07:39.395Z,4.00
2018-01-22T22:08:39.392Z,4.00
2018-01-22T22:09:39.383Z,4.00
2018-01-22T22:10:39.379Z,4.00
2018-01-22T22:11:39.374Z,8.00
2018-01-22T22:12:39.370Z,4.00
2018-01-22T22:13:39.364Z,4.00
2018-01-22T22:14:39.678Z,8.00
2018-01-22T22:15:39.348Z,4.00
2018-01-22T22:16:39.397Z,4.00
2018-01-22T22:17:39.346Z,8.00
2018-01-22T22:18:39.342Z,4.00
2018-01-22T22:19:39.339Z,4.00
2018-01-22T22:20:39.449Z,4.00
2018-01-22T22:21:39.321Z,8.00
2018-01-22T22:22:39.313Z,4.00
2018-01-22T22:23:39.319Z,4.00
2018-01-22T22:24:39.315Z,8.00
2018-01-22T22:25:39.335Z,4.00
2018-01-22T22:26:39.335Z,8.00
2018-01-22T22:27:39.291Z,4.00
2018-01-22T22:28:39.322Z,4.00
2018-01-22T22:29:39.290Z,8.00
2018-01-22T22:30:39.285Z,8.00
2018-01-22T22:31:39.281Z,8.00
2018-01-22T22:32:39.275Z,4.00
2018-01-22T22:33:39.271Z,4.00
2018-01-22T22:34:39.280Z,8.00
2018-01-22T22:35:39.276Z,4.00
2018-01-22T22:36:39.257Z,4.00
2018-01-22T22:37:39.251Z,4.00
2018-01-22T22:38:39.246Z,4.00
2018-01-22T22:39:39.247Z,8.00
2018-01-22T22:40:39.238Z,4.00
2018-01-22T22:41:39.232Z,8.00
2018-01-22T22:42:39.228Z,4.00
2018-01-22T22:43:39.222Z,8.00
2018-01-22T22:44:39.219Z,4.00
2018-01-22T22:45:39.233Z,4.00
2018-01-22T22:46:39.207Z,4.00
2018-01-22T22:47:39.204Z,4.00
2018-01-22T22:48:39.200Z,4.00
2018-01-22T22:49:39.196Z,4.00
2018-01-22T22:50:39.188Z,4.00
2018-01-22T22:51:39.185Z,4.00
2018-01-22T22:52:39.180Z,4.00
2018-01-22T22:53:39.542Z,4.00
2018-01-22T22:54:39.170Z,4.00
2018-01-22T22:55:39.165Z,8.00
2018-01-22T22:56:39.162Z,4.00
2018-01-22T22:57:39.155Z,4.00
2018-01-22T22:58:39.153Z,4.00
2018-01-22T22:59:39.145Z,4.00
2018-01-22T23:00:39.142Z,4.00
2018-01-22T23:01:39.143Z,4.00
2018-01-22T23:02:39.132Z,4.00
2018-01-22T23:03:39.127Z,4.00
2018-01-22T23:04:39.123Z,4.00
2018-01-22T23:05:39.134Z,4.00
2018-01-22T23:06:39.115Z,4.00
2018-01-22T23:07:39.109Z,4.00
2018-01-22T23:08:39.104Z,4.00
2018-01-22T23:09:39.099Z,4.00
2018-01-22T23:10:39.096Z,4.00
2018-01-22T23:11:39.093Z,4.00
2018-01-22T23:12:39.095Z,4.00
2018-01-22T23:13:39.080Z,4.00
2018-01-22T23:14:39.076Z,4.00
2018-01-22T23:15:39.072Z,4.00
2018-01-22T23:16:39.069Z,8.00
2018-01-22T23:17:39.062Z,4.00
2018-01-22T23:18:39.064Z,4.00
2018-01-22T23:19:39.052Z,4.00
2018-01-22T23:20:39.048Z,4.00
2018-01-22T23:21:39.044Z,4.00
2018-01-22T23:22:39.769Z,4.00
2018-01-22T23:23:39.118Z,4.00
2018-01-22T23:24:40.007Z,4.00
2018-01-22T23:25:39.024Z,4.00
2018-01-22T23:26:39.024Z,4.00
2018-01-22T23:27:39.018Z,4.00
2018-01-22T23:28:39.014Z,4.00
2018-01-22T23:29:39.007Z,4.00
2018-01-22T23:30:39.001Z,4.00
2018-01-22T23:31:38.998Z,4.00
2018-01-22T23:32:38.992Z,4.00
2018-01-22T23:33:38.987Z,4.00
2018-01-22T23:34:38.986Z,4.00
2018-01-22T23:35:38.978Z,4.00
2018-01-22T23:36:38.979Z,4.00
2018-01-22T23:37:38.986Z,4.00
2018-01-22T23:38:38.964Z,4.00
2018-01-22T23:39:38.960Z,4.00
2018-01-22T23:40:38.957Z,4.00
2018-01-22T23:41:38.949Z,4.00
2018-01-22T23:42:38.945Z,4.00
2018-01-22T23:43:38.942Z,4.00
2018-01-22T23:44:38.941Z,4.00
2018-01-22T23:45:38.930Z,4.00
2018-01-22T23:46:38.927Z,4.00
2018-01-22T23:47:38.922Z,4.00
2018-01-22T23:48:38.919Z,4.00
2018-01-22T23:49:38.923Z,4.00
2018-01-22T23:50:38.907Z,4.00
2018-01-22T23:51:38.905Z,4.00
2018-01-22T23:52:38.897Z,4.00
2018-01-22T23:53:38.892Z,4.00
2018-01-22T23:54:38.888Z,4.00
2018-01-22T23:55:38.884Z,4.00
2018-01-22T23:56:38.880Z,4.00
2018-01-22T23:57:38.873Z,4.00
2018-01-22T23:58:38.868Z,4.00
2018-01-22T23:59:38.866Z,4.00
